Greenfield, Wisconsin
Current Conditions -  °F | °C
As of 9:52 PM on Thursday 27 Nov 2014 (Local Time) from KMKE Reporting Station
Clear Clear  
Wind Chill:   Ceiling: Unl
Heat Index: 15°   Visibility: 10mi
Dew Point:   Wind: 5mph
Humidity: 70%   Direction: 280°W
Pressure: 30.38"   Gusts: NA
Location:  42.97°N, 88°W
Report Text: KMKE 280352Z 28004KT 10SM CLR M09/M14 A3038 RMK AO2 SLP301 T10941139
Loading
Personal Weather Stations






























Interactive Weather Map New forecast layout! Learn more

10-Day Weather Forecast

Advertisements
Track Severe Weather on mobile